sensor_id;sensor_type;location;lat;lon;timestamp;P1;durP1;ratioP1;P2;durP2;ratioP2
41653;SDS011;68687;52.030;7.110;2023-12-20T00:01:45;17.10;;;8.05;;
41653;SDS011;68687;52.030;7.110;2023-12-20T00:04:11;21.08;;;8.30;;
41653;SDS011;68687;52.030;7.110;2023-12-20T00:06:36;25.05;;;8.32;;
41653;SDS011;68687;52.030;7.110;2023-12-20T00:09:01;21.13;;;8.70;;
41653;SDS011;68687;52.030;7.110;2023-12-20T00:11:26;27.00;;;10.95;;
41653;SDS011;68687;52.030;7.110;2023-12-20T00:13:52;24.73;;;10.90;;
41653;SDS011;68687;52.030;7.110;2023-12-20T00:16:17;23.35;;;10.50;;
41653;SDS011;68687;52.030;7.110;2023-12-20T00:18:45;26.90;;;10.40;;
41653;SDS011;68687;52.030;7.110;2023-12-20T00:21:11;21.55;;;10.23;;
41653;SDS011;68687;52.030;7.110;2023-12-20T00:23:36;23.60;;;11.20;;
41653;SDS011;68687;52.030;7.110;2023-12-20T00:26:13;26.05;;;10.32;;
41653;SDS011;68687;52.030;7.110;2023-12-20T00:28:39;30.42;;;11.27;;
41653;SDS011;68687;52.030;7.110;2023-12-20T00:31:04;31.52;;;12.30;;
41653;SDS011;68687;52.030;7.110;2023-12-20T00:33:29;33.45;;;12.82;;
41653;SDS011;68687;52.030;7.110;2023-12-20T00:35:57;29.33;;;12.40;;
41653;SDS011;68687;52.030;7.110;2023-12-20T00:38:23;22.77;;;12.07;;
41653;SDS011;68687;52.030;7.110;2023-12-20T00:40:48;28.10;;;13.18;;
41653;SDS011;68687;52.030;7.110;2023-12-20T00:43:14;33.30;;;12.63;;
41653;SDS011;68687;52.030;7.110;2023-12-20T00:45:43;31.38;;;11.20;;
41653;SDS011;68687;52.030;7.110;2023-12-20T00:48:08;22.38;;;10.65;;
41653;SDS011;68687;52.030;7.110;2023-12-20T00:50:33;27.83;;;10.88;;
41653;SDS011;68687;52.030;7.110;2023-12-20T00:52:59;29.30;;;11.55;;
41653;SDS011;68687;52.030;7.110;2023-12-20T00:55:24;24.70;;;11.18;;
41653;SDS011;68687;52.030;7.110;2023-12-20T00:57:49;26.02;;;9.13;;
41653;SDS011;68687;52.030;7.110;2023-12-20T01:00:15;28.83;;;10.63;;
41653;SDS011;68687;52.030;7.110;2023-12-20T01:02:40;26.05;;;10.88;;
41653;SDS011;68687;52.030;7.110;2023-12-20T01:05:06;23.40;;;10.60;;
41653;SDS011;68687;52.030;7.110;2023-12-20T01:07:32;25.10;;;10.10;;
41653;SDS011;68687;52.030;7.110;2023-12-20T01:09:57;23.75;;;10.60;;
41653;SDS011;68687;52.030;7.110;2023-12-20T01:12:23;25.90;;;10.57;;
41653;SDS011;68687;52.030;7.110;2023-12-20T01:14:48;26.10;;;10.27;;
41653;SDS011;68687;52.030;7.110;2023-12-20T01:17:13;19.98;;;10.60;;
41653;SDS011;68687;52.030;7.110;2023-12-20T01:19:39;26.63;;;10.88;;
41653;SDS011;68687;52.030;7.110;2023-12-20T01:22:04;24.15;;;11.38;;
41653;SDS011;68687;52.030;7.110;2023-12-20T01:24:29;33.35;;;11.40;;
41653;SDS011;68687;52.030;7.110;2023-12-20T01:26:55;16.63;;;8.65;;
41653;SDS011;68687;52.030;7.110;2023-12-20T01:29:23;27.73;;;10.55;;
41653;SDS011;68687;52.030;7.110;2023-12-20T01:31:48;18.48;;;7.88;;
41653;SDS011;68687;52.030;7.110;2023-12-20T01:34:14;26.60;;;8.95;;
41653;SDS011;68687;52.030;7.110;2023-12-20T01:36:39;23.85;;;8.75;;
41653;SDS011;68687;52.030;7.110;2023-12-20T01:39:04;21.75;;;8.07;;
41653;SDS011;68687;52.030;7.110;2023-12-20T01:41:29;22.23;;;7.47;;
41653;SDS011;68687;52.030;7.110;2023-12-20T01:43:55;19.40;;;6.72;;
41653;SDS011;68687;52.030;7.110;2023-12-20T01:46:22;24.20;;;7.40;;
41653;SDS011;68687;52.030;7.110;2023-12-20T01:48:48;26.58;;;7.28;;
41653;SDS011;68687;52.030;7.110;2023-12-20T01:51:13;22.30;;;7.03;;
41653;SDS011;68687;52.030;7.110;2023-12-20T01:53:39;18.10;;;6.97;;
41653;SDS011;68687;52.030;7.110;2023-12-20T01:56:07;26.73;;;6.53;;
41653;SDS011;68687;52.030;7.110;2023-12-20T01:58:33;33.85;;;7.63;;
41653;SDS011;68687;52.030;7.110;2023-12-20T02:00:59;19.88;;;5.93;;
41653;SDS011;68687;52.030;7.110;2023-12-20T02:03:24;20.88;;;5.55;;
41653;SDS011;68687;52.030;7.110;2023-12-20T02:05:50;14.48;;;5.80;;
41653;SDS011;68687;52.030;7.110;2023-12-20T02:08:15;19.33;;;5.72;;
41653;SDS011;68687;52.030;7.110;2023-12-20T02:10:40;23.50;;;5.57;;
41653;SDS011;68687;52.030;7.110;2023-12-20T02:13:06;18.08;;;5.82;;
41653;SDS011;68687;52.030;7.110;2023-12-20T02:15:32;13.68;;;4.68;;
41653;SDS011;68687;52.030;7.110;2023-12-20T02:17:57;21.60;;;5.22;;
41653;SDS011;68687;52.030;7.110;2023-12-20T02:20:26;23.38;;;5.63;;
41653;SDS011;68687;52.030;7.110;2023-12-20T02:22:51;25.33;;;5.50;;
41653;SDS011;68687;52.030;7.110;2023-12-20T02:25:16;25.00;;;5.25;;
41653;SDS011;68687;52.030;7.110;2023-12-20T02:27:41;16.42;;;4.80;;
41653;SDS011;68687;52.030;7.110;2023-12-20T02:30:08;21.98;;;5.45;;
41653;SDS011;68687;52.030;7.110;2023-12-20T02:32:33;23.38;;;5.95;;
41653;SDS011;68687;52.030;7.110;2023-12-20T02:34:58;20.83;;;5.15;;
41653;SDS011;68687;52.030;7.110;2023-12-20T02:37:24;29.25;;;6.95;;
41653;SDS011;68687;52.030;7.110;2023-12-20T02:39:49;20.38;;;6.00;;
41653;SDS011;68687;52.030;7.110;2023-12-20T02:42:15;24.23;;;5.65;;
41653;SDS011;68687;52.030;7.110;2023-12-20T02:44:40;17.85;;;5.40;;
41653;SDS011;68687;52.030;7.110;2023-12-20T02:47:05;26.83;;;6.00;;
41653;SDS011;68687;52.030;7.110;2023-12-20T02:49:30;23.63;;;5.82;;
41653;SDS011;68687;52.030;7.110;2023-12-20T02:51:56;19.85;;;5.65;;
41653;SDS011;68687;52.030;7.110;2023-12-20T02:54:24;21.60;;;5.78;;
41653;SDS011;68687;52.030;7.110;2023-12-20T02:56:49;31.92;;;6.95;;
41653;SDS011;68687;52.030;7.110;2023-12-20T02:59:15;27.67;;;5.95;;
41653;SDS011;68687;52.030;7.110;2023-12-20T03:01:43;32.72;;;6.43;;
41653;SDS011;68687;52.030;7.110;2023-12-20T03:04:09;23.17;;;6.38;;
41653;SDS011;68687;52.030;7.110;2023-12-20T03:06:35;20.70;;;6.28;;
41653;SDS011;68687;52.030;7.110;2023-12-20T03:09:00;26.73;;;6.10;;
41653;SDS011;68687;52.030;7.110;2023-12-20T03:11:28;24.40;;;5.90;;
41653;SDS011;68687;52.030;7.110;2023-12-20T03:13:54;19.73;;;6.50;;
41653;SDS011;68687;52.030;7.110;2023-12-20T03:16:22;19.80;;;5.80;;
41653;SDS011;68687;52.030;7.110;2023-12-20T03:18:51;34.60;;;7.07;;
41653;SDS011;68687;52.030;7.110;2023-12-20T03:21:16;24.40;;;5.88;;
41653;SDS011;68687;52.030;7.110;2023-12-20T03:23:42;25.85;;;7.47;;
41653;SDS011;68687;52.030;7.110;2023-12-20T03:26:11;32.83;;;5.70;;
41653;SDS011;68687;52.030;7.110;2023-12-20T03:28:36;28.98;;;7.43;;
41653;SDS011;68687;52.030;7.110;2023-12-20T03:31:02;24.83;;;5.38;;
41653;SDS011;68687;52.030;7.110;2023-12-20T03:33:31;20.02;;;5.70;;
41653;SDS011;68687;52.030;7.110;2023-12-20T03:35:56;21.13;;;5.35;;
41653;SDS011;68687;52.030;7.110;2023-12-20T03:38:21;20.33;;;5.60;;
41653;SDS011;68687;52.030;7.110;2023-12-20T03:40:49;20.10;;;5.50;;
41653;SDS011;68687;52.030;7.110;2023-12-20T03:43:17;33.25;;;7.97;;
41653;SDS011;68687;52.030;7.110;2023-12-20T03:45:42;31.45;;;5.82;;
41653;SDS011;68687;52.030;7.110;2023-12-20T03:48:08;29.02;;;6.93;;
41653;SDS011;68687;52.030;7.110;2023-12-20T03:50:34;30.33;;;7.10;;
41653;SDS011;68687;52.030;7.110;2023-12-20T03:52:59;22.30;;;5.43;;
41653;SDS011;68687;52.030;7.110;2023-12-20T03:55:24;20.02;;;6.32;;
41653;SDS011;68687;52.030;7.110;2023-12-20T03:57:50;31.98;;;7.20;;
41653;SDS011;68687;52.030;7.110;2023-12-20T04:00:18;29.08;;;6.70;;
41653;SDS011;68687;52.030;7.110;2023-12-20T04:02:44;28.52;;;7.03;;
41653;SDS011;68687;52.030;7.110;2023-12-20T04:05:09;24.25;;;6.32;;
41653;SDS011;68687;52.030;7.110;2023-12-20T04:07:35;29.85;;;8.00;;
41653;SDS011;68687;52.030;7.110;2023-12-20T04:10:01;31.20;;;6.85;;
41653;SDS011;68687;52.030;7.110;2023-12-20T04:12:27;38.30;;;8.02;;
41653;SDS011;68687;52.030;7.110;2023-12-20T04:14:53;39.20;;;7.60;;
41653;SDS011;68687;52.030;7.110;2023-12-20T04:17:18;29.80;;;7.70;;
41653;SDS011;68687;52.030;7.110;2023-12-20T04:19:44;31.70;;;8.25;;
41653;SDS011;68687;52.030;7.110;2023-12-20T04:22:09;19.95;;;7.70;;
41653;SDS011;68687;52.030;7.110;2023-12-20T04:24:34;27.13;;;8.75;;
41653;SDS011;68687;52.030;7.110;2023-12-20T04:27:00;39.08;;;9.80;;
41653;SDS011;68687;52.030;7.110;2023-12-20T04:29:26;34.05;;;8.80;;
41653;SDS011;68687;52.030;7.110;2023-12-20T04:31:51;31.05;;;8.93;;
41653;SDS011;68687;52.030;7.110;2023-12-20T04:34:17;27.73;;;8.88;;
41653;SDS011;68687;52.030;7.110;2023-12-20T04:36:42;35.10;;;9.75;;
41653;SDS011;68687;52.030;7.110;2023-12-20T04:39:08;30.05;;;8.35;;
41653;SDS011;68687;52.030;7.110;2023-12-20T04:41:33;27.48;;;8.95;;
41653;SDS011;68687;52.030;7.110;2023-12-20T04:43:58;31.42;;;9.25;;
41653;SDS011;68687;52.030;7.110;2023-12-20T04:46:23;39.33;;;9.60;;
41653;SDS011;68687;52.030;7.110;2023-12-20T04:48:49;35.85;;;9.38;;
41653;SDS011;68687;52.030;7.110;2023-12-20T04:51:14;34.33;;;8.95;;
41653;SDS011;68687;52.030;7.110;2023-12-20T04:53:40;22.33;;;8.80;;
41653;SDS011;68687;52.030;7.110;2023-12-20T04:56:05;36.45;;;10.52;;
41653;SDS011;68687;52.030;7.110;2023-12-20T04:58:33;43.25;;;10.60;;
41653;SDS011;68687;52.030;7.110;2023-12-20T05:00:59;37.17;;;10.98;;
41653;SDS011;68687;52.030;7.110;2023-12-20T05:03:24;34.13;;;10.32;;
41653;SDS011;68687;52.030;7.110;2023-12-20T05:05:49;43.40;;;10.15;;
41653;SDS011;68687;52.030;7.110;2023-12-20T05:08:14;43.78;;;12.65;;
41653;SDS011;68687;52.030;7.110;2023-12-20T05:10:40;43.05;;;10.45;;
41653;SDS011;68687;52.030;7.110;2023-12-20T05:13:05;33.10;;;12.80;;
41653;SDS011;68687;52.030;7.110;2023-12-20T05:15:30;39.75;;;10.00;;
41653;SDS011;68687;52.030;7.110;2023-12-20T05:17:56;35.25;;;9.65;;
41653;SDS011;68687;52.030;7.110;2023-12-20T05:20:21;41.38;;;12.52;;
41653;SDS011;68687;52.030;7.110;2023-12-20T05:22:46;32.72;;;8.45;;
41653;SDS011;68687;52.030;7.110;2023-12-20T05:25:12;26.10;;;8.98;;
41653;SDS011;68687;52.030;7.110;2023-12-20T05:27:37;48.30;;;10.27;;
41653;SDS011;68687;52.030;7.110;2023-12-20T05:30:03;49.50;;;9.05;;
41653;SDS011;68687;52.030;7.110;2023-12-20T05:32:29;45.22;;;10.25;;
41653;SDS011;68687;52.030;7.110;2023-12-20T05:34:54;44.70;;;9.52;;
41653;SDS011;68687;52.030;7.110;2023-12-20T05:37:20;46.70;;;9.52;;
41653;SDS011;68687;52.030;7.110;2023-12-20T05:39:45;32.97;;;8.18;;
41653;SDS011;68687;52.030;7.110;2023-12-20T05:42:10;41.13;;;9.15;;
41653;SDS011;68687;52.030;7.110;2023-12-20T05:44:35;34.97;;;8.02;;
41653;SDS011;68687;52.030;7.110;2023-12-20T05:47:01;43.28;;;8.15;;
41653;SDS011;68687;52.030;7.110;2023-12-20T05:49:32;36.08;;;8.85;;
41653;SDS011;68687;52.030;7.110;2023-12-20T05:51:58;37.97;;;8.48;;
41653;SDS011;68687;52.030;7.110;2023-12-20T05:54:23;27.55;;;9.40;;
41653;SDS011;68687;52.030;7.110;2023-12-20T05:56:51;38.22;;;11.25;;
41653;SDS011;68687;52.030;7.110;2023-12-20T05:59:16;42.15;;;11.15;;
41653;SDS011;68687;52.030;7.110;2023-12-20T06:01:41;33.35;;;8.52;;
41653;SDS011;68687;52.030;7.110;2023-12-20T06:04:07;44.03;;;9.20;;
41653;SDS011;68687;52.030;7.110;2023-12-20T06:06:32;35.50;;;8.48;;
41653;SDS011;68687;52.030;7.110;2023-12-20T06:08:57;33.30;;;8.90;;
41653;SDS011;68687;52.030;7.110;2023-12-20T06:11:23;23.15;;;7.93;;
41653;SDS011;68687;52.030;7.110;2023-12-20T06:13:51;32.50;;;7.82;;
41653;SDS011;68687;52.030;7.110;2023-12-20T06:16:18;28.08;;;9.25;;
41653;SDS011;68687;52.030;7.110;2023-12-20T06:18:43;37.85;;;9.07;;
41653;SDS011;68687;52.030;7.110;2023-12-20T06:21:08;27.38;;;8.70;;
41653;SDS011;68687;52.030;7.110;2023-12-20T06:23:37;40.72;;;9.27;;
41653;SDS011;68687;52.030;7.110;2023-12-20T06:26:03;36.08;;;8.50;;
41653;SDS011;68687;52.030;7.110;2023-12-20T06:28:28;47.75;;;10.68;;
41653;SDS011;68687;52.030;7.110;2023-12-20T06:30:53;41.00;;;11.27;;
41653;SDS011;68687;52.030;7.110;2023-12-20T06:33:19;31.35;;;8.25;;
41653;SDS011;68687;52.030;7.110;2023-12-20T06:35:46;35.22;;;10.35;;
41653;SDS011;68687;52.030;7.110;2023-12-20T06:38:11;31.13;;;7.70;;
41653;SDS011;68687;52.030;7.110;2023-12-20T06:40:37;33.03;;;9.55;;
41653;SDS011;68687;52.030;7.110;2023-12-20T06:43:02;26.15;;;7.70;;
41653;SDS011;68687;52.030;7.110;2023-12-20T06:45:27;40.25;;;9.85;;
41653;SDS011;68687;52.030;7.110;2023-12-20T06:47:53;32.42;;;7.95;;
41653;SDS011;68687;52.030;7.110;2023-12-20T06:50:19;31.48;;;9.07;;
41653;SDS011;68687;52.030;7.110;2023-12-20T06:52:45;37.97;;;9.23;;
41653;SDS011;68687;52.030;7.110;2023-12-20T06:55:13;23.92;;;8.50;;
41653;SDS011;68687;52.030;7.110;2023-12-20T06:57:38;43.08;;;8.48;;
41653;SDS011;68687;52.030;7.110;2023-12-20T07:00:04;29.90;;;8.73;;
41653;SDS011;68687;52.030;7.110;2023-12-20T07:02:30;29.15;;;8.38;;
41653;SDS011;68687;52.030;7.110;2023-12-20T07:04:56;24.10;;;8.05;;
41653;SDS011;68687;52.030;7.110;2023-12-20T07:07:22;33.88;;;7.47;;
41653;SDS011;68687;52.030;7.110;2023-12-20T07:09:49;33.05;;;9.45;;
41653;SDS011;68687;52.030;7.110;2023-12-20T07:12:17;37.00;;;9.65;;
41653;SDS011;68687;52.030;7.110;2023-12-20T07:14:47;31.02;;;9.02;;
41653;SDS011;68687;52.030;7.110;2023-12-20T07:17:12;28.42;;;8.82;;
41653;SDS011;68687;52.030;7.110;2023-12-20T07:19:43;32.35;;;8.65;;
41653;SDS011;68687;52.030;7.110;2023-12-20T07:22:08;65.88;;;16.00;;
41653;SDS011;68687;52.030;7.110;2023-12-20T07:24:36;48.42;;;14.30;;
41653;SDS011;68687;52.030;7.110;2023-12-20T07:27:02;36.83;;;9.88;;
41653;SDS011;68687;52.030;7.110;2023-12-20T07:29:27;70.45;;;20.63;;
41653;SDS011;68687;52.030;7.110;2023-12-20T07:31:53;46.17;;;12.73;;
41653;SDS011;68687;52.030;7.110;2023-12-20T07:34:18;43.83;;;10.55;;
41653;SDS011;68687;52.030;7.110;2023-12-20T07:36:44;30.40;;;9.45;;
41653;SDS011;68687;52.030;7.110;2023-12-20T07:39:16;38.15;;;8.45;;
41653;SDS011;68687;52.030;7.110;2023-12-20T07:41:41;27.27;;;8.20;;
41653;SDS011;68687;52.030;7.110;2023-12-20T07:44:06;28.63;;;8.00;;
41653;SDS011;68687;52.030;7.110;2023-12-20T07:46:32;34.03;;;9.20;;
41653;SDS011;68687;52.030;7.110;2023-12-20T07:48:57;55.00;;;10.75;;
41653;SDS011;68687;52.030;7.110;2023-12-20T07:51:23;32.85;;;10.38;;
41653;SDS011;68687;52.030;7.110;2023-12-20T07:53:51;36.85;;;8.20;;
41653;SDS011;68687;52.030;7.110;2023-12-20T07:56:17;31.83;;;8.27;;
41653;SDS011;68687;52.030;7.110;2023-12-20T07:58:43;31.25;;;8.68;;
41653;SDS011;68687;52.030;7.110;2023-12-20T08:01:10;37.75;;;11.07;;
41653;SDS011;68687;52.030;7.110;2023-12-20T08:03:38;32.00;;;8.88;;
41653;SDS011;68687;52.030;7.110;2023-12-20T08:06:03;44.20;;;8.80;;
41653;SDS011;68687;52.030;7.110;2023-12-20T08:08:29;28.27;;;8.90;;
41653;SDS011;68687;52.030;7.110;2023-12-20T08:10:55;39.55;;;9.77;;
41653;SDS011;68687;52.030;7.110;2023-12-20T08:13:22;42.85;;;10.02;;
41653;SDS011;68687;52.030;7.110;2023-12-20T08:15:50;32.00;;;10.25;;
41653;SDS011;68687;52.030;7.110;2023-12-20T08:18:16;32.28;;;9.48;;
41653;SDS011;68687;52.030;7.110;2023-12-20T08:20:41;19.63;;;8.57;;
41653;SDS011;68687;52.030;7.110;2023-12-20T08:23:06;26.67;;;8.60;;
41653;SDS011;68687;52.030;7.110;2023-12-20T08:25:32;31.17;;;10.82;;
41653;SDS011;68687;52.030;7.110;2023-12-20T08:27:57;27.20;;;8.85;;
41653;SDS011;68687;52.030;7.110;2023-12-20T08:30:25;36.30;;;10.63;;
41653;SDS011;68687;52.030;7.110;2023-12-20T08:32:51;42.65;;;11.88;;
41653;SDS011;68687;52.030;7.110;2023-12-20T08:35:16;35.00;;;10.18;;
41653;SDS011;68687;52.030;7.110;2023-12-20T08:37:54;32.17;;;9.55;;
41653;SDS011;68687;52.030;7.110;2023-12-20T08:40:20;35.25;;;10.02;;
41653;SDS011;68687;52.030;7.110;2023-12-20T08:42:45;41.75;;;9.55;;
41653;SDS011;68687;52.030;7.110;2023-12-20T08:45:17;54.60;;;12.88;;
41653;SDS011;68687;52.030;7.110;2023-12-20T08:47:45;47.22;;;12.80;;
41653;SDS011;68687;52.030;7.110;2023-12-20T08:50:13;33.72;;;10.23;;
41653;SDS011;68687;52.030;7.110;2023-12-20T08:52:38;44.53;;;10.13;;
41653;SDS011;68687;52.030;7.110;2023-12-20T08:55:04;52.50;;;15.68;;
41653;SDS011;68687;52.030;7.110;2023-12-20T08:57:29;51.80;;;13.98;;
41653;SDS011;68687;52.030;7.110;2023-12-20T08:59:56;34.47;;;10.68;;
41653;SDS011;68687;52.030;7.110;2023-12-20T09:02:22;32.47;;;9.63;;
41653;SDS011;68687;52.030;7.110;2023-12-20T09:04:50;33.08;;;10.05;;
41653;SDS011;68687;52.030;7.110;2023-12-20T09:07:23;35.53;;;9.95;;
41653;SDS011;68687;52.030;7.110;2023-12-20T09:09:49;37.35;;;10.82;;
41653;SDS011;68687;52.030;7.110;2023-12-20T09:12:15;35.05;;;9.32;;
41653;SDS011;68687;52.030;7.110;2023-12-20T09:14:40;25.13;;;8.90;;
41653;SDS011;68687;52.030;7.110;2023-12-20T09:17:06;35.40;;;9.90;;
41653;SDS011;68687;52.030;7.110;2023-12-20T09:19:40;44.65;;;9.75;;
41653;SDS011;68687;52.030;7.110;2023-12-20T09:22:05;32.28;;;11.07;;
41653;SDS011;68687;52.030;7.110;2023-12-20T09:24:31;43.15;;;10.10;;
41653;SDS011;68687;52.030;7.110;2023-12-20T09:26:59;36.08;;;9.20;;
41653;SDS011;68687;52.030;7.110;2023-12-20T09:29:24;43.03;;;13.13;;
41653;SDS011;68687;52.030;7.110;2023-12-20T09:31:50;35.40;;;9.60;;
41653;SDS011;68687;52.030;7.110;2023-12-20T09:34:15;37.10;;;9.40;;
41653;SDS011;68687;52.030;7.110;2023-12-20T09:36:45;32.05;;;10.05;;
41653;SDS011;68687;52.030;7.110;2023-12-20T09:39:13;42.40;;;10.18;;
41653;SDS011;68687;52.030;7.110;2023-12-20T09:41:42;32.28;;;9.85;;
41653;SDS011;68687;52.030;7.110;2023-12-20T09:44:10;29.92;;;10.13;;
41653;SDS011;68687;52.030;7.110;2023-12-20T09:46:43;30.42;;;11.10;;
41653;SDS011;68687;52.030;7.110;2023-12-20T09:49:09;26.92;;;10.68;;
41653;SDS011;68687;52.030;7.110;2023-12-20T09:51:35;44.45;;;12.80;;
41653;SDS011;68687;52.030;7.110;2023-12-20T09:54:04;71.30;;;23.85;;
41653;SDS011;68687;52.030;7.110;2023-12-20T09:56:30;60.90;;;17.05;;
41653;SDS011;68687;52.030;7.110;2023-12-20T09:58:55;49.60;;;12.32;;
41653;SDS011;68687;52.030;7.110;2023-12-20T10:01:21;35.53;;;9.57;;
41653;SDS011;68687;52.030;7.110;2023-12-20T10:03:51;34.35;;;12.55;;
41653;SDS011;68687;52.030;7.110;2023-12-20T10:06:22;44.42;;;13.23;;
41653;SDS011;68687;52.030;7.110;2023-12-20T10:08:47;40.10;;;10.98;;
41653;SDS011;68687;52.030;7.110;2023-12-20T10:11:13;36.70;;;11.23;;
41653;SDS011;68687;52.030;7.110;2023-12-20T10:13:39;30.88;;;10.45;;
41653;SDS011;68687;52.030;7.110;2023-12-20T10:16:12;29.15;;;9.55;;
41653;SDS011;68687;52.030;7.110;2023-12-20T10:18:37;41.42;;;10.68;;
41653;SDS011;68687;52.030;7.110;2023-12-20T10:21:03;29.50;;;12.38;;
41653;SDS011;68687;52.030;7.110;2023-12-20T10:23:29;32.05;;;9.45;;
41653;SDS011;68687;52.030;7.110;2023-12-20T10:25:58;25.42;;;8.25;;
41653;SDS011;68687;52.030;7.110;2023-12-20T10:28:28;32.83;;;9.38;;
41653;SDS011;68687;52.030;7.110;2023-12-20T10:30:59;35.63;;;7.82;;
41653;SDS011;68687;52.030;7.110;2023-12-20T10:33:28;37.78;;;9.38;;
41653;SDS011;68687;52.030;7.110;2023-12-20T10:35:55;30.73;;;11.27;;
41653;SDS011;68687;52.030;7.110;2023-12-20T10:38:24;34.35;;;10.20;;
41653;SDS011;68687;52.030;7.110;2023-12-20T10:40:49;36.15;;;8.63;;
41653;SDS011;68687;52.030;7.110;2023-12-20T10:43:21;35.50;;;8.57;;
41653;SDS011;68687;52.030;7.110;2023-12-20T10:45:48;22.88;;;7.55;;
41653;SDS011;68687;52.030;7.110;2023-12-20T10:48:13;31.38;;;10.30;;
41653;SDS011;68687;52.030;7.110;2023-12-20T10:50:38;27.63;;;7.95;;
41653;SDS011;68687;52.030;7.110;2023-12-20T10:53:06;28.35;;;8.18;;
41653;SDS011;68687;52.030;7.110;2023-12-20T10:55:35;33.30;;;12.93;;
41653;SDS011;68687;52.030;7.110;2023-12-20T10:58:01;32.13;;;10.93;;
41653;SDS011;68687;52.030;7.110;2023-12-20T11:00:28;28.17;;;8.48;;
41653;SDS011;68687;52.030;7.110;2023-12-20T11:02:55;30.80;;;7.82;;
41653;SDS011;68687;52.030;7.110;2023-12-20T11:08:23;24.85;;;8.88;;
41653;SDS011;68687;52.030;7.110;2023-12-20T11:11:09;24.65;;;8.10;;
41653;SDS011;68687;52.030;7.110;2023-12-20T11:14:01;28.77;;;8.95;;
41653;SDS011;68687;52.030;7.110;2023-12-20T11:16:28;32.10;;;8.18;;
41653;SDS011;68687;52.030;7.110;2023-12-20T11:18:53;29.75;;;9.38;;
41653;SDS011;68687;52.030;7.110;2023-12-20T11:21:18;41.15;;;12.02;;
41653;SDS011;68687;52.030;7.110;2023-12-20T11:23:44;32.75;;;11.95;;
41653;SDS011;68687;52.030;7.110;2023-12-20T11:26:12;33.00;;;11.40;;
41653;SDS011;68687;52.030;7.110;2023-12-20T11:28:41;33.30;;;9.48;;
41653;SDS011;68687;52.030;7.110;2023-12-20T11:31:06;33.13;;;7.97;;
41653;SDS011;68687;52.030;7.110;2023-12-20T11:36:03;34.95;;;9.50;;
41653;SDS011;68687;52.030;7.110;2023-12-20T11:38:37;37.72;;;9.75;;
41653;SDS011;68687;52.030;7.110;2023-12-20T11:41:05;39.65;;;8.80;;
41653;SDS011;68687;52.030;7.110;2023-12-20T11:43:31;32.45;;;8.38;;
41653;SDS011;68687;52.030;7.110;2023-12-20T11:46:06;39.72;;;9.30;;
41653;SDS011;68687;52.030;7.110;2023-12-20T11:48:34;30.33;;;9.32;;
41653;SDS011;68687;52.030;7.110;2023-12-20T11:51:00;42.28;;;12.77;;
41653;SDS011;68687;52.030;7.110;2023-12-20T11:53:25;42.80;;;12.00;;
41653;SDS011;68687;52.030;7.110;2023-12-20T11:55:51;36.92;;;8.52;;
41653;SDS011;68687;52.030;7.110;2023-12-20T11:58:16;29.75;;;8.57;;
41653;SDS011;68687;52.030;7.110;2023-12-20T12:00:42;37.75;;;7.80;;
41653;SDS011;68687;52.030;7.110;2023-12-20T12:03:14;43.03;;;9.45;;
41653;SDS011;68687;52.030;7.110;2023-12-20T12:05:43;36.97;;;9.55;;
41653;SDS011;68687;52.030;7.110;2023-12-20T12:08:08;30.17;;;10.07;;
41653;SDS011;68687;52.030;7.110;2023-12-20T12:10:33;29.92;;;9.85;;
41653;SDS011;68687;52.030;7.110;2023-12-20T12:12:59;42.95;;;9.70;;
41653;SDS011;68687;52.030;7.110;2023-12-20T12:15:25;34.03;;;8.85;;
41653;SDS011;68687;52.030;7.110;2023-12-20T12:17:54;28.48;;;7.70;;
41653;SDS011;68687;52.030;7.110;2023-12-20T12:20:23;35.65;;;8.35;;
41653;SDS011;68687;52.030;7.110;2023-12-20T12:23:07;37.08;;;10.00;;
41653;SDS011;68687;52.030;7.110;2023-12-20T12:25:35;27.13;;;8.95;;
41653;SDS011;68687;52.030;7.110;2023-12-20T12:28:01;46.63;;;12.02;;
41653;SDS011;68687;52.030;7.110;2023-12-20T12:30:27;34.22;;;9.02;;
41653;SDS011;68687;52.030;7.110;2023-12-20T12:32:52;40.10;;;11.20;;
41653;SDS011;68687;52.030;7.110;2023-12-20T12:35:19;37.05;;;8.60;;
41653;SDS011;68687;52.030;7.110;2023-12-20T12:37:45;30.70;;;7.95;;
41653;SDS011;68687;52.030;7.110;2023-12-20T12:40:14;21.10;;;7.40;;
41653;SDS011;68687;52.030;7.110;2023-12-20T12:42:56;40.85;;;8.35;;
41653;SDS011;68687;52.030;7.110;2023-12-20T12:45:21;36.95;;;9.90;;
41653;SDS011;68687;52.030;7.110;2023-12-20T12:47:50;28.05;;;9.00;;
41653;SDS011;68687;52.030;7.110;2023-12-20T12:50:15;45.72;;;7.85;;
41653;SDS011;68687;52.030;7.110;2023-12-20T12:52:41;25.27;;;7.55;;
41653;SDS011;68687;52.030;7.110;2023-12-20T12:55:06;29.35;;;7.32;;
41653;SDS011;68687;52.030;7.110;2023-12-20T12:57:32;37.40;;;10.30;;
41653;SDS011;68687;52.030;7.110;2023-12-20T12:59:58;28.20;;;8.30;;
41653;SDS011;68687;52.030;7.110;2023-12-20T13:02:23;25.83;;;6.95;;
41653;SDS011;68687;52.030;7.110;2023-12-20T13:04:49;33.92;;;8.90;;
41653;SDS011;68687;52.030;7.110;2023-12-20T13:07:14;31.45;;;8.48;;
41653;SDS011;68687;52.030;7.110;2023-12-20T13:09:42;37.83;;;8.38;;
41653;SDS011;68687;52.030;7.110;2023-12-20T13:12:13;33.67;;;10.05;;
41653;SDS011;68687;52.030;7.110;2023-12-20T13:14:45;34.15;;;9.02;;
41653;SDS011;68687;52.030;7.110;2023-12-20T13:17:10;28.98;;;8.15;;
41653;SDS011;68687;52.030;7.110;2023-12-20T13:19:36;33.85;;;8.50;;
41653;SDS011;68687;52.030;7.110;2023-12-20T13:22:01;26.58;;;8.13;;
41653;SDS011;68687;52.030;7.110;2023-12-20T13:24:26;29.77;;;7.28;;
41653;SDS011;68687;52.030;7.110;2023-12-20T13:26:51;24.42;;;7.38;;
41653;SDS011;68687;52.030;7.110;2023-12-20T13:29:29;28.10;;;7.63;;
41653;SDS011;68687;52.030;7.110;2023-12-20T13:31:54;25.98;;;8.23;;
41653;SDS011;68687;52.030;7.110;2023-12-20T13:34:20;28.40;;;6.90;;
41653;SDS011;68687;52.030;7.110;2023-12-20T13:36:48;17.70;;;6.25;;
41653;SDS011;68687;52.030;7.110;2023-12-20T13:39:18;33.67;;;7.55;;
41653;SDS011;68687;52.030;7.110;2023-12-20T13:41:43;35.63;;;8.18;;
41653;SDS011;68687;52.030;7.110;2023-12-20T13:44:08;37.65;;;7.80;;
41653;SDS011;68687;52.030;7.110;2023-12-20T13:46:34;25.00;;;6.88;;
41653;SDS011;68687;52.030;7.110;2023-12-20T13:48:59;31.65;;;7.63;;
41653;SDS011;68687;52.030;7.110;2023-12-20T13:51:24;26.63;;;7.82;;
41653;SDS011;68687;52.030;7.110;2023-12-20T13:53:50;27.50;;;7.65;;
41653;SDS011;68687;52.030;7.110;2023-12-20T13:56:15;28.63;;;8.48;;
41653;SDS011;68687;52.030;7.110;2023-12-20T13:58:44;34.88;;;11.27;;
41653;SDS011;68687;52.030;7.110;2023-12-20T14:01:14;39.97;;;9.88;;
41653;SDS011;68687;52.030;7.110;2023-12-20T14:03:39;40.13;;;12.55;;
41653;SDS011;68687;52.030;7.110;2023-12-20T14:06:06;32.13;;;8.70;;
41653;SDS011;68687;52.030;7.110;2023-12-20T14:08:31;34.63;;;8.63;;
41653;SDS011;68687;52.030;7.110;2023-12-20T14:10:59;34.70;;;8.27;;
41653;SDS011;68687;52.030;7.110;2023-12-20T14:13:26;31.75;;;11.50;;
41653;SDS011;68687;52.030;7.110;2023-12-20T14:15:51;28.48;;;8.40;;
41653;SDS011;68687;52.030;7.110;2023-12-20T14:18:16;26.30;;;7.63;;
41653;SDS011;68687;52.030;7.110;2023-12-20T14:20:43;31.63;;;8.45;;
41653;SDS011;68687;52.030;7.110;2023-12-20T14:23:12;36.78;;;7.65;;
41653;SDS011;68687;52.030;7.110;2023-12-20T14:25:39;26.67;;;7.35;;
41653;SDS011;68687;52.030;7.110;2023-12-20T14:28:05;39.88;;;7.47;;
41653;SDS011;68687;52.030;7.110;2023-12-20T14:30:34;29.00;;;7.85;;
41653;SDS011;68687;52.030;7.110;2023-12-20T14:33:00;32.47;;;7.40;;